Terminal Aerodrome Forecast
Issued by NWS Sterling, VA

Home | Current Version | Previous Version | Text Only | Print | Product List | Glossary On
Versions: 1 2 3 4 5 6 7 8 9 10 11 12
000
FTUS41 KLWX 260500
TAFMRB
TAF
KMRB 260538Z 2606/2706 29014G24KT P6SM FEW060
     FM260900 30009KT P6SM SKC
     FM261300 31015G27KT P6SM SKC
     FM270000 28007KT P6SM SKC=

USA.gov is the U.S. government's official web portal to all federal, state and local government web resources and services.